dimanche 4 mai 2014

ALERTE SPOTTING 04/05/14


320 F-GHQE Air Corsica (blanc avec titre)
   XK4503/XK4502  11h50/12h55
  XK4505/XK4504  20h15/21h20

CNJ D-IAMO
   QGA952/953 12h50/14h30


IL9 CU-T1250 Cubana
  CU444/CU445  13h07/15h05

342 A7-HHK Qatar
   arv  QAF004  19h00

CNJ
   DCS703  21h00/23h15

73H LN-NGE Norwegian (couleur Unicef)
   DY3638/DY3639  21h05/21h35

Manque les prévisions de certains AB / AH / AZ / BA / BE / IB / KM / TP / TU

*** Heures en Local Time **
Prévisions matinales soumises à modifications de dernières minute.
 Voir le log du mois pour la version 'définitive' de la journée: 
 http://www.airkalo.com/ORLYAVIATION/Logdumois.html

le TAF de la journée:




METAR: LFPO 040230Z 01007KT CAVOK 06/03 Q1024 NOSIG=
TAF LONG: AMD LFPO 032354Z 0400/0506 02008KT CAVOK=